Flight Track Log - Related Links

Times and Time Zones

All times are in EDT time to prevent confusion due to time zone crossing. See the AWE874 flight status page for this flight to view local times or setup timezone preferences in your user account.

Time Position Orientation Groundspeed Altitude Reporting Facility
EDT Latitude Longitude Course Direction KTS MPH feet Rate Location/Type
Sun 10:10:34 AM 35.1992 -80.9378 193° South 157 181 1,500  Level Atlanta Center
Sun 10:11:10 AM 35.1719 -80.9339 173° South 153 176 2,700 1,875 Climbing Atlanta Center
Sun 10:11:54 AM 35.1258 -80.9281 174° South 220 253 4,000 1,962 Climbing Atlanta Center
Sun 10:12:54 AM 35.0611 -80.9178 173° South 236 272 6,100 2,179 Climbing Atlanta Center
Sun 10:13:00 AM 34.8607 -80.7372 175° South  Level Estimated
Sun 10:14:00 AM 34.7430 -80.6670 180° South  Level Estimated
Sun 10:15:00 AM 34.6252 -80.5970 165° South  Level Estimated
Sun 10:15:04 AM 34.9075 -80.9031 176° South 277 319 10,900  Level Jacksonville Center
Sun 10:16:00 AM 34.5073 -80.5272 193° South  Level Estimated
Sun 10:16:04 AM 34.8219 -80.9025 180° South 298 343 13,000  Level Jacksonville Center
Sun 10:17:04 AM 34.7303 -80.8994 178° South 320 368 15,100 2,100 Climbing Jacksonville Center
Sun 10:18:04 AM 34.6386 -80.9092 185° South 332 382 17,200 1,800 Climbing Jacksonville Center
Sun 10:19:04 AM 34.5406 -80.9139 182° South 348 400 18,700 1,600 Climbing Jacksonville Center
Sun 10:20:04 AM 34.4428 -80.9211 183° South 348 400 20,400 1,650 Climbing Jacksonville Center
Sun 10:21:04 AM 34.3342 -80.9186 179° South 348 400 22,000 1,300 Climbing Jacksonville Center
Sun 10:22:04 AM 34.2319 -80.9183 180° South 359 413 23,000 700 Climbing Jacksonville Center
Sun 10:23:04 AM 34.1278 -80.9258 183° South 367 422 23,400 1,000 Climbing Jacksonville Center
Sun 10:24:04 AM 34.0214 -80.9308 182° South 374 430 25,000 1,450 Climbing Jacksonville Center
Sun 10:25:04 AM 33.9108 -80.9356 182° South 386 444 26,300 1,150 Climbing Jacksonville Center
Sun 10:26:04 AM 33.8006 -80.9406 182° South 391 450 27,300 850 Climbing Jacksonville Center
Sun 10:27:04 AM 33.6878 -80.9456 182° South 397 457 28,000 350 Climbing Jacksonville Center
Sun 10:28:04 AM 33.5689 -80.9508 182° South 414 476 28,000  Level Jacksonville Center
Sun 10:29:04 AM 33.4417 -80.9561 182° South 433 498 28,000  Level Jacksonville Center
Sun 10:30:04 AM 33.3167 -80.9586 181° South 447 514 28,000  Level Jacksonville Center
Sun 10:31:04 AM 33.1914 -80.9664 183° South 452 520 28,000  Level Jacksonville Center
Sun 10:32:04 AM 33.0767 -80.9689 181° South 459 528 28,000  Level Jacksonville Center
Sun 10:33:04 AM 32.9536 -80.9739 182° South 459 528 28,000  Level Jacksonville Center
Sun 10:34:04 AM 32.8283 -80.9767 181° South 459 528 28,000  Level Jacksonville Center
Sun 10:35:04 AM 32.7011 -80.9842 183° South 459 528 28,000  Level Jacksonville Center
Sun 10:36:04 AM 32.5761 -80.9894 182° South 459 528 28,000  Level Jacksonville Center
Sun 10:37:04 AM 32.4489 -80.9944 182° South 459 528 28,000  Level Jacksonville Center
Sun 10:38:04 AM 32.3111 -80.9997 182° South 459 528 28,000  Level Jacksonville Center
Sun 10:39:04 AM 32.1983 -81.0047 182° South 454 522 28,000  Level Jacksonville Center
Sun 10:40:04 AM 32.0583 -80.9878 174° South 459 528 28,000  Level Jacksonville Center
Sun 10:41:04 AM 31.9267 -80.9736 175° South 468 539 28,000  Level Jacksonville Center
Sun 10:42:04 AM 31.8114 -80.9611 175° South 463 533 28,000  Level Jacksonville Center
Sun 10:43:04 AM 31.6714 -80.9444 174° South 461 531 28,000  Level Jacksonville Center
Sun 10:44:04 AM 31.5417 -80.9278 174° South 471 542 28,000  Level Jacksonville Center
Sun 10:45:04 AM 31.4100 -80.9111 174° South 466 536 28,000  Level Jacksonville Center
Sun 10:46:04 AM 31.2908 -80.9014 176° South 472 543 28,000  Level Jacksonville Center
Sun 10:47:04 AM 31.1611 -80.8872 175° South 472 543 28,000  Level Jacksonville Center
Sun 10:48:04 AM 31.0314 -80.8731 175° South 472 543 28,000  Level Jacksonville Center
Sun 10:49:04 AM 30.9081 -80.8564 173° South 472 543 28,000  Level Jacksonville Center
Sun 10:50:04 AM 30.7761 -80.8422 175° South 472 543 28,000  Level Jacksonville Center
Sun 10:51:04 AM 30.6486 -80.8256 174° South 467 537 28,000  Level Jacksonville Center
Sun 10:52:04 AM 30.5189 -80.8092 174° South 467 537 28,000  Level Jacksonville Center
Sun 10:53:04 AM 30.3892 -80.7975 176° South 467 537 28,000  Level Jacksonville Center
Sun 10:54:04 AM 30.2617 -80.7811 174° South 467 537 28,000  Level Jacksonville Center
Sun 10:55:04 AM 30.1319 -80.7672 175° South 467 537 28,000  Level Jacksonville Center
Sun 10:56:04 AM 30.0022 -80.7531 175° South 467 537 28,000  Level Jacksonville Center
Sun 10:57:04 AM 29.8725 -80.7369 174° South 467 537 28,000  Level Jacksonville Center
Sun 10:58:04 AM 29.7325 -80.7233 175° South 467 537 28,000 50 Level Jacksonville Center
Sun 10:59:04 AM 29.6006 -80.7094 175° South 467 537 28,100 550 Climbing Jacksonville Center
Sun 11:00:04 AM 29.4708 -80.6933 174° South 467 537 29,100 900 Climbing Jacksonville Center
Sun 11:01:04 AM 29.3433 -80.6769 174° South 467 537 29,900 651 Climbing Jacksonville Center
Sun 11:01:27 AM 29.2889 -80.6750 178° South 464 534 30,000 72 Climbing Miami Center
Sun 11:02:27 AM 29.1578 -80.6583 174° South 464 534 30,000  Level Miami Center
Sun 11:03:27 AM 29.0247 -80.6444 175° South 474 545 30,000  Level Miami Center
Sun 11:04:27 AM 28.8981 -80.6258 173° South 479 551 30,000  Level Miami Center
Sun 11:05:27 AM 28.7772 -80.6147 175° South 477 549 30,000  Level Miami Center
Sun 11:06:27 AM 28.6483 -80.6008 175° South 477 549 30,000 300 Level Miami Center
Sun 11:07:27 AM 28.5047 -80.5842 174° South 477 549 30,600 700 Climbing Miami Center
Sun 11:08:27 AM 28.3986 -80.5714 174° South 477 549 31,400 700 Climbing Miami Center
Sun 11:09:27 AM 28.2511 -80.5522 173° South 483 556 32,000 300 Climbing Miami Center
Sun 11:10:27 AM 28.1178 -80.5408 176° South 483 556 32,000  Level Miami Center
Sun 11:11:27 AM 27.9867 -80.5247 174° South 483 556 32,000  Level Miami Center
Sun 11:12:27 AM 27.8536 -80.5089 174° South 478 550 32,000  Level Miami Center
Sun 11:13:27 AM 27.7183 -80.4881 172° South 478 550 32,000  Level Miami Center
Sun 11:14:27 AM 27.5922 -80.4394 161° South 478 550 32,000  Level Miami Center
Sun 11:15:27 AM 27.4728 -80.3703 153° Southeast 478 550 32,000  Level Miami Center
Sun 11:16:27 AM 27.3467 -80.3197 160° South 478 550 32,000  Level Miami Center
Sun 11:17:27 AM 27.2247 -80.2739 162° South 478 550 32,000 -50 Level Miami Center
Sun 11:18:27 AM 27.1006 -80.2261 161° South 478 550 31,900  Descending Miami Center
Sun 11:19:27 AM 26.9742 -80.1758 160° South 478 550 32,000 50 Climbing Miami Center
Sun 11:20:27 AM 26.8500 -80.1281 161° South 478 550 32,000 450 Level Miami Center
Sun 11:21:27 AM 26.7278 -80.0828 162° South 478 550 32,900 500 Climbing Miami Center
Sun 11:22:27 AM 26.5911 -80.0303 161° South 478 550 33,000 50 Climbing Miami Center
Sun 11:23:27 AM 26.4792 -79.9878 161° South 473 544 33,000  Level Miami Center
Sun 11:24:27 AM 26.3425 -79.9353 161° South 473 544 33,000 -50 Level Miami Center
Sun 11:25:27 AM 26.2328 -79.8933 161° South 473 544 32,900  Descending Miami Center
Sun 11:26:27 AM 26.1125 -79.8486 162° South 468 539 33,000 50 Climbing Miami Center
Sun 11:27:27 AM 25.9881 -79.7992 160° South 468 539 33,000  Level Miami Center
Sun 11:28:27 AM 25.8636 -79.7614 165° South 468 539 33,000  Level Miami Center
Sun 11:29:27 AM 25.7408 -79.7308 167° South 462 532 33,000  Level Miami Center
Sun 11:30:27 AM 25.6142 -79.6978 167° South 457 526 33,000  Level Miami Center
Sun 11:31:27 AM 25.4892 -79.6672 168° South 457 526 33,000  Level Miami Center
Sun 11:32:27 AM 25.3667 -79.6369 167° South 457 526 33,000  Level Miami Center
Sun 11:33:27 AM 25.2419 -79.6042 167° South 457 526 33,000  Level Miami Center
Sun 11:34:27 AM 25.1150 -79.5739 168° South 462 532 33,000  Level Miami Center
Sun 11:35:27 AM 24.9903 -79.5414 167° South 462 532 33,000  Level Miami Center
Sun 11:36:27 AM 24.8653 -79.5111 168° South 467 537 33,000  Level Miami Center
Sun 11:37:27 AM 24.7303 -79.4761 167° South 462 532 33,000  Level Miami Center
Sun 11:38:27 AM 24.6053 -79.4461 168° South 468 539 33,000 -50 Level Miami Center
Sun 11:39:27 AM 24.4783 -79.4161 168° South 468 539 32,900  Descending Miami Center
Sun 11:40:27 AM 24.3558 -79.3817 166° South 468 539 33,000 50 Climbing Miami Center
Sun 11:41:27 AM 24.2289 -79.3517 168° South 468 539 33,000  Level Miami Center
Sun 11:42:27 AM 24.1017 -79.3219 168° South 468 539 33,000  Level Miami Center
Sun 11:43:27 AM 23.9769 -79.2922 168° South 468 539 33,000  Level Miami Center
Sun 11:45:00 AM 23.7994 -79.2108 157° South  Level FlightAware Approximate
Sun 11:52:00 AM 22.9675 -78.9290 173° South  Level FlightAware Approximate
Sun 11:53:00 AM 22.8442 -78.9124 173° South  Level FlightAware Approximate
Sun 11:54:00 AM 22.7210 -78.8959 173° South  Level FlightAware Approximate
Sun 11:55:00 AM 22.5977 -78.8795 173° South  Level FlightAware Approximate
Sun 11:56:00 AM 22.4745 -78.8630 173° South  Level FlightAware Approximate
Sun 11:57:00 AM 22.3512 -78.8466 173° South  Level FlightAware Approximate
Sun 11:58:00 AM 22.2280 -78.8302 173° South  Level FlightAware Approximate
Sun 11:59:00 AM 22.1047 -78.8139 173° South  Level FlightAware Approximate
Sun 12:00:00 PM 21.9831 -78.7914 155° Southeast  Level FlightAware Approximate
Sun 12:01:00 PM 21.8708 -78.7343 155° Southeast  Level FlightAware Approximate
Sun 12:02:00 PM 21.7585 -78.6772 155° Southeast  Level FlightAware Approximate
Sun 12:03:00 PM 21.6461 -78.6203 155° Southeast  Level FlightAware Approximate
Sun 12:04:00 PM 21.5338 -78.5634 155° Southeast  Level FlightAware Approximate
Sun 12:05:00 PM 21.4214 -78.5066 155° Southeast  Level FlightAware Approximate
Sun 12:06:00 PM 21.3090 -78.4499 155° Southeast  Level FlightAware Approximate
Sun 12:07:00 PM 21.1966 -78.3933 155° Southeast  Level FlightAware Approximate
Sun 12:08:00 PM 21.0841 -78.3368 155° Southeast  Level FlightAware Approximate
Sun 12:09:00 PM 20.9717 -78.2804 155° Southeast  Level FlightAware Approximate
Sun 12:10:00 PM 20.8592 -78.2240 155° Southeast  Level FlightAware Approximate
Sun 12:11:00 PM 20.7467 -78.1678 155° Southeast  Level FlightAware Approximate
Sun 12:12:00 PM 20.6342 -78.1116 155° Southeast  Level FlightAware Approximate
Sun 12:13:00 PM 20.5217 -78.0555 155° Southeast  Level FlightAware Approximate
Sun 12:14:00 PM 20.4091 -77.9995 155° Southeast  Level FlightAware Approximate
Sun 12:15:00 PM 20.2965 -77.9436 155° Southeast  Level FlightAware Approximate
Sun 12:16:00 PM 20.1839 -77.8877 155° Southeast  Level FlightAware Approximate
Sun 12:17:00 PM 20.0713 -77.8319 155° Southeast  Level FlightAware Approximate
Sun 12:18:00 PM 19.9587 -77.7762 155° Southeast  Level FlightAware Approximate
Sun 12:19:00 PM 19.8461 -77.7206 155° Southeast  Level FlightAware Approximate
Sun 12:20:00 PM 19.7334 -77.6651 155° Southeast  Level FlightAware Approximate
Sun 12:21:00 PM 19.6208 -77.6096 155° Southeast  Level FlightAware Approximate
Sun 12:22:00 PM 19.5081 -77.5541 155° Southeast  Level FlightAware Approximate
Sun 12:23:00 PM 19.3958 -77.4979 155° Southeast  Level FlightAware Approximate
Sun 12:24:00 PM 19.2834 -77.4419 155° Southeast  Level FlightAware Approximate
Sun 12:25:00 PM 19.1711 -77.3859 155° Southeast  Level FlightAware Approximate
Sun 12:26:00 PM 19.0587 -77.3300 155° Southeast  Level FlightAware Approximate
Sun 12:27:00 PM 18.9463 -77.2742 155° Southeast  Level FlightAware Approximate
Sun 12:28:00 PM 18.8339 -77.2184 155° Southeast  Level FlightAware Approximate
Sun 12:29:00 PM 18.7214 -77.1628 155° Southeast  Level FlightAware Approximate
Sun 12:30:00 PM 18.6089 -77.1072 155° Southeast  Level FlightAware Approximate
Sun 12:31:00 PM 18.4965 -77.0516 155° Southeast  Level FlightAware Approximate
Sun 12:32:00 PM 18.3840 -76.9962 155° Southeast  Level FlightAware Approximate
Sun 12:33:00 PM 18.2715 -76.9408 155° Southeast  Level FlightAware Approximate
Sun 12:34:00 PM 18.1590 -76.8855 155° Southeast  Level FlightAware Approximate
Sun 12:35:00 PM 18.0464 -76.8303 155° Southeast  Level FlightAware Approximate
Sun 12:36:00 PM 17.9339 -76.7751 155° Southeast  Level FlightAware Approximate
Sun 12:37:00 PM 17.8491 -76.6819 130° Southeast  Level FlightAware Approximate
Sun 12:38:00 PM 17.7693 -76.5820 130° Southeast  Level FlightAware Approximate
Sun 12:39:00 PM 17.6895 -76.4821 130° Southeast  Level FlightAware Approximate
Sun 12:40:00 PM 17.6096 -76.3823 130° Southeast  Level FlightAware Approximate
Sun 12:41:00 PM 17.5296 -76.2827 130° Southeast  Level FlightAware Approximate
Sun 12:42:00 PM 17.4496 -76.1831 130° Southeast  Level FlightAware Approximate
Sun 12:43:00 PM 17.3696 -76.0836 130° Southeast  Level FlightAware Approximate
Sun 12:44:00 PM 17.2895 -75.9841 130° Southeast  Level FlightAware Approximate
Sun 12:45:00 PM 17.2094 -75.8848 130° Southeast  Level FlightAware Approximate
Sun 12:46:00 PM 17.1292 -75.7856 130° Southeast  Level FlightAware Approximate
Sun 12:47:00 PM 17.0490 -75.6864 130° Southeast  Level FlightAware Approximate
Sun 12:48:00 PM 16.9687 -75.5873 130° Southeast  Level FlightAware Approximate
Sun 12:49:00 PM 16.8883 -75.4883 130° Southeast  Level FlightAware Approximate
Sun 12:50:00 PM 16.8079 -75.3895 130° Southeast  Level FlightAware Approximate
Sun 12:51:00 PM 16.7275 -75.2906 130° Southeast  Level FlightAware Approximate
Sun 12:52:00 PM 16.6470 -75.1919 130° Southeast  Level FlightAware Approximate
Sun 12:53:00 PM 16.5665 -75.0932 130° Southeast  Level FlightAware Approximate
Sun 12:54:00 PM 16.4860 -74.9947 130° Southeast  Level FlightAware Approximate
Sun 12:55:00 PM 16.4053 -74.8962 130° Southeast  Level FlightAware Approximate
Sun 12:56:00 PM 16.3247 -74.7978 130° Southeast  Level FlightAware Approximate
Sun 12:57:00 PM 16.2440 -74.6994 131° Southeast  Level FlightAware Approximate
Sun 12:58:00 PM 16.1632 -74.6012 131° Southeast  Level FlightAware Approximate
Sun 12:59:00 PM 16.0824 -74.5030 131° Southeast  Level FlightAware Approximate
Sun 01:00:00 PM 16.0016 -74.4049 131° Southeast  Level FlightAware Approximate
Sun 01:01:00 PM 15.9207 -74.3069 131° Southeast  Level FlightAware Approximate
Sun 01:02:00 PM 15.8398 -74.2090 131° Southeast  Level FlightAware Approximate
Sun 01:03:00 PM 15.7588 -74.1112 131° Southeast  Level FlightAware Approximate
Sun 01:04:00 PM 15.6778 -74.0134 131° Southeast  Level FlightAware Approximate
Sun 01:05:00 PM 15.6005 -73.9124 128° Southeast  Level FlightAware Approximate
Sun 01:06:00 PM 15.5239 -73.8110 128° Southeast  Level FlightAware Approximate
Sun 01:07:00 PM 15.4472 -73.7096 128° Southeast  Level FlightAware Approximate
Sun 01:08:00 PM 15.3705 -73.6084 128° Southeast  Level FlightAware Approximate
Sun 01:09:00 PM 15.2937 -73.5072 128° Southeast  Level FlightAware Approximate
Sun 01:10:00 PM 15.2168 -73.4061 128° Southeast  Level FlightAware Approximate
Sun 01:11:00 PM 15.1399 -73.3050 128° Southeast  Level FlightAware Approximate
Sun 01:12:00 PM 15.0630 -73.2040 128° Southeast  Level FlightAware Approximate
Sun 01:13:00 PM 14.9860 -73.1031 128° Southeast  Level FlightAware Approximate
Sun 01:14:00 PM 14.9090 -73.0023 128° Southeast  Level FlightAware Approximate
Sun 01:15:00 PM 14.8320 -72.9015 128° Southeast  Level FlightAware Approximate
Sun 01:16:00 PM 14.7549 -72.8008 128° Southeast  Level FlightAware Approximate
Sun 01:17:00 PM 14.6777 -72.7002 128° Southeast  Level FlightAware Approximate
Sun 01:18:00 PM 14.6005 -72.5997 128° Southeast  Level FlightAware Approximate
Sun 01:19:00 PM 14.5233 -72.4992 128° Southeast  Level FlightAware Approximate
Sun 01:20:00 PM 14.4460 -72.3988 128° Southeast  Level FlightAware Approximate
Sun 01:21:00 PM 14.3687 -72.2985 128° Southeast  Level FlightAware Approximate
Sun 01:22:00 PM 14.2914 -72.1982 129° Southeast  Level FlightAware Approximate
Sun 01:23:00 PM 14.2140 -72.0980 129° Southeast  Level FlightAware Approximate
Sun 01:24:00 PM 14.1365 -71.9979 129° Southeast  Level FlightAware Approximate
Sun 01:25:00 PM 14.0590 -71.8979 129° Southeast  Level FlightAware Approximate
Sun 01:26:00 PM 13.9815 -71.7979 129° Southeast  Level FlightAware Approximate
Sun 01:27:00 PM 13.9039 -71.6979 129° Southeast  Level FlightAware Approximate
Sun 01:28:00 PM 13.8263 -71.5981 129° Southeast  Level FlightAware Approximate
Sun 01:29:00 PM 13.7487 -71.4983 129° Southeast  Level FlightAware Approximate
Sun 01:30:00 PM 13.6711 -71.3985 129° Southeast  Level FlightAware Approximate
Sun 01:31:00 PM 13.5902 -71.3020 124° Southeast  Level FlightAware Approximate
Sun 01:32:00 PM 13.5129 -71.2021 131° Southeast  Level FlightAware Approximate
Sun 01:33:00 PM 13.4321 -71.1052 131° Southeast  Level FlightAware Approximate
Sun 01:34:00 PM 13.3519 -71.0078 130° Southeast  Level FlightAware Approximate
Sun 01:35:00 PM 13.2719 -70.9101 130° Southeast  Level FlightAware Approximate
Sun 01:36:00 PM 13.1940 -70.8108 128° Southeast  Level FlightAware Approximate
Sun 01:37:00 PM 13.1169 -70.7109 128° Southeast  Level FlightAware Approximate
Sun 01:38:00 PM 13.0397 -70.6110 128° Southeast  Level FlightAware Approximate

Login

Don't have an account? Register now (free) for customized features, flight alerts, and more!